AEE4PA LGAV-LDDU
Flight info
| Callsign | AEE4PA |
|---|---|
| Flight time | 1h 16m |
| Altitude | 36000 |
| Route | KOR UL53 IXONI DCT YNN UL611 TUMBO DCT OVVER DCT RODON DCT MOKUN |
| Aircraft | A320/M-SDE3FGHIRWY/LB1 |
Departure
| Time | 2026-05-04 18:26 |
|---|---|
| Airport | Athens Eleftherios Venizelos International Airport (LGAV) |
Arrival
| Time | 2026-05-04 19:42 |
|---|---|
| Airport | Dubrovnik Ruđer Bošković Airport (LDDU) |
| Time | Latitude | Longitude | Altitude | Speed | Heading |
|---|---|---|---|---|---|
| 2026-05-04 17:55 | 37.93611 | 23.94837 | 304 ft | 0 kts | 308° |
| 2026-05-04 18:17 | 37.93608 | 23.94840 | 301 ft | 3 kts | 308° |
| 2026-05-04 18:17 | 37.93592 | 23.94867 | 302 ft | 4 kts | 303° |
| 2026-05-04 18:17 | 37.93573 | 23.94925 | 301 ft | 4 kts | 255° |
| 2026-05-04 18:18 | 37.93579 | 23.94940 | 301 ft | 1 kts | 217° |
| 2026-05-04 18:18 | 37.93581 | 23.94942 | 301 ft | 0 kts | 217° |
| 2026-05-04 18:20 | 37.93566 | 23.94927 | 302 ft | 8 kts | 217° |
| 2026-05-04 18:20 | 37.93495 | 23.94862 | 302 ft | 17 kts | 210° |
| 2026-05-04 18:20 | 37.93393 | 23.94888 | 300 ft | 15 kts | 200° |
| 2026-05-04 18:20 | 37.93286 | 23.94791 | 301 ft | 23 kts | 217° |
| 2026-05-04 18:21 | 37.93141 | 23.94651 | 301 ft | 29 kts | 217° |
| 2026-05-04 18:21 | 37.92975 | 23.94494 | 303 ft | 30 kts | 216° |
| 2026-05-04 18:21 | 37.92802 | 23.94331 | 302 ft | 32 kts | 217° |
| 2026-05-04 18:21 | 37.92622 | 23.94162 | 302 ft | 33 kts | 216° |
| 2026-05-04 18:22 | 37.92485 | 23.94076 | 303 ft | 13 kts | 143° |
| 2026-05-04 18:22 | 37.92433 | 23.94157 | 303 ft | 0 kts | 127° |
| 2026-05-04 18:22 | 37.92432 | 23.94160 | 303 ft | 0 kts | 127° |
| 2026-05-04 18:24 | 37.92431 | 23.94161 | 303 ft | 3 kts | 127° |
| 2026-05-04 18:24 | 37.92411 | 23.94230 | 305 ft | 13 kts | 95° |
| 2026-05-04 18:24 | 37.92414 | 23.94338 | 308 ft | 12 kts | 86° |
| 2026-05-04 18:24 | 37.92460 | 23.94429 | 309 ft | 14 kts | 37° |
| 2026-05-04 18:25 | 37.92544 | 23.94510 | 307 ft | 18 kts | 37° |
| 2026-05-04 18:25 | 37.92643 | 23.94603 | 305 ft | 12 kts | 37° |
| 2026-05-04 18:25 | 37.92651 | 23.94611 | 305 ft | 3 kts | 37° |
| 2026-05-04 18:25 | 37.92782 | 23.94734 | 302 ft | 59 kts | 37° |
| 2026-05-04 18:26 | 37.93087 | 23.95024 | 296 ft | 103 kts | 36° |
| 2026-05-04 18:26 | 37.93803 | 23.95706 | 284 ft | 152 kts | 37° |
| 2026-05-04 18:26 | 37.95044 | 23.96878 | 788 ft | 173 kts | 38° |
| 2026-05-04 18:26 | 37.96010 | 23.97801 | 1486 ft | 175 kts | 36° |
| 2026-05-04 18:27 | 37.96976 | 23.98742 | 2159 ft | 177 kts | 36° |
| 2026-05-04 18:27 | 37.97647 | 23.99398 | 2482 ft | 184 kts | 36° |
| 2026-05-04 18:27 | 37.98669 | 24.00402 | 2966 ft | 193 kts | 35° |
| 2026-05-04 18:27 | 37.99783 | 24.01496 | 3321 ft | 214 kts | 35° |
| 2026-05-04 18:28 | 38.01047 | 24.02688 | 3771 ft | 234 kts | 34° |
| 2026-05-04 18:28 | 38.02367 | 24.03934 | 4622 ft | 239 kts | 34° |
| 2026-05-04 18:28 | 38.03754 | 24.05127 | 5439 ft | 245 kts | 22° |
| 2026-05-04 18:28 | 38.05429 | 24.05550 | 6202 ft | 251 kts | 355° |
| 2026-05-04 18:29 | 38.07092 | 24.04828 | 7002 ft | 260 kts | 327° |
| 2026-05-04 18:29 | 38.08316 | 24.03112 | 7831 ft | 270 kts | 300° |
| 2026-05-04 18:29 | 38.08756 | 24.00775 | 8675 ft | 281 kts | 273° |
| 2026-05-04 18:29 | 38.08638 | 23.98280 | 9582 ft | 283 kts | 271° |
| 2026-05-04 18:30 | 38.08489 | 23.93247 | 10957 ft | 297 kts | 272° |
| 2026-05-04 18:30 | 38.08474 | 23.90533 | 11218 ft | 319 kts | 274° |
| 2026-05-04 18:30 | 38.08487 | 23.87636 | 11520 ft | 338 kts | 274° |
| 2026-05-04 18:31 | 38.08498 | 23.84596 | 11947 ft | 349 kts | 273° |
| 2026-05-04 18:31 | 38.08483 | 23.81493 | 12586 ft | 354 kts | 273° |
| 2026-05-04 18:31 | 38.08459 | 23.78349 | 13241 ft | 358 kts | 272° |
| 2026-05-04 18:31 | 38.08391 | 23.75167 | 13913 ft | 363 kts | 271° |
| 2026-05-04 18:32 | 38.08280 | 23.71954 | 14526 ft | 366 kts | 269° |
| 2026-05-04 18:32 | 38.08133 | 23.68719 | 15161 ft | 368 kts | 270° |
| 2026-05-04 18:32 | 38.08069 | 23.65506 | 15745 ft | 371 kts | 271° |
| 2026-05-04 18:32 | 38.08036 | 23.62219 | 16316 ft | 374 kts | 271° |
| 2026-05-04 18:33 | 38.08007 | 23.58856 | 16899 ft | 378 kts | 271° |
| 2026-05-04 18:33 | 38.07980 | 23.55557 | 17480 ft | 380 kts | 271° |
| 2026-05-04 18:33 | 38.07939 | 23.52193 | 18113 ft | 382 kts | 270° |
| 2026-05-04 18:33 | 38.07891 | 23.48813 | 18714 ft | 384 kts | 270° |
| 2026-05-04 18:34 | 38.07836 | 23.45417 | 19281 ft | 386 kts | 270° |
| 2026-05-04 18:34 | 38.07769 | 23.41988 | 19727 ft | 392 kts | 269° |
| 2026-05-04 18:34 | 38.07691 | 23.38516 | 20219 ft | 395 kts | 269° |
| 2026-05-04 18:34 | 38.07609 | 23.35016 | 20747 ft | 398 kts | 269° |
| 2026-05-04 18:35 | 38.07529 | 23.31485 | 21254 ft | 401 kts | 270° |
| 2026-05-04 18:35 | 38.07455 | 23.27940 | 21752 ft | 403 kts | 270° |
| 2026-05-04 18:35 | 38.07383 | 23.24379 | 22236 ft | 405 kts | 270° |
| 2026-05-04 18:35 | 38.07309 | 23.20795 | 22725 ft | 407 kts | 270° |
| 2026-05-04 18:36 | 38.07234 | 23.17193 | 23239 ft | 409 kts | 271° |
| 2026-05-04 18:36 | 38.07159 | 23.13577 | 23747 ft | 411 kts | 271° |
| 2026-05-04 18:36 | 38.07084 | 23.09948 | 24174 ft | 412 kts | 272° |
| 2026-05-04 18:36 | 38.07006 | 23.06358 | 24606 ft | 413 kts | 272° |
| 2026-05-04 18:37 | 38.06923 | 23.02714 | 25043 ft | 413 kts | 272° |
| 2026-05-04 18:37 | 38.06838 | 22.99065 | 25467 ft | 414 kts | 273° |
| 2026-05-04 18:37 | 38.06752 | 22.95360 | 25891 ft | 415 kts | 273° |
| 2026-05-04 18:37 | 38.06667 | 22.91750 | 26318 ft | 415 kts | 273° |
| 2026-05-04 18:38 | 38.06582 | 22.88084 | 26742 ft | 416 kts | 274° |
| 2026-05-04 18:38 | 38.06497 | 22.84410 | 27155 ft | 417 kts | 274° |
| 2026-05-04 18:38 | 38.06409 | 22.80723 | 27561 ft | 419 kts | 274° |
| 2026-05-04 18:38 | 38.06321 | 22.77016 | 27962 ft | 420 kts | 274° |
| 2026-05-04 18:39 | 38.06428 | 22.73333 | 28339 ft | 415 kts | 283° |
| 2026-05-04 18:39 | 38.07035 | 22.69781 | 28707 ft | 410 kts | 292° |
| 2026-05-04 18:39 | 38.08116 | 22.66468 | 29083 ft | 406 kts | 302° |
| 2026-05-04 18:39 | 38.09611 | 22.63448 | 29466 ft | 404 kts | 308° |
| 2026-05-04 18:40 | 38.11219 | 22.60537 | 30011 ft | 401 kts | 308° |
| 2026-05-04 18:40 | 38.12808 | 22.57636 | 30526 ft | 399 kts | 308° |
| 2026-05-04 18:40 | 38.14384 | 22.54744 | 30968 ft | 398 kts | 308° |
| 2026-05-04 18:40 | 38.15954 | 22.51857 | 31412 ft | 397 kts | 308° |
| 2026-05-04 18:41 | 38.17522 | 22.48974 | 31812 ft | 396 kts | 308° |
| 2026-05-04 18:41 | 38.19090 | 22.46095 | 32223 ft | 396 kts | 308° |
| 2026-05-04 18:41 | 38.20657 | 22.43217 | 32633 ft | 396 kts | 308° |
| 2026-05-04 18:41 | 38.22223 | 22.40342 | 33043 ft | 395 kts | 308° |
| 2026-05-04 18:42 | 38.23785 | 22.37467 | 33462 ft | 395 kts | 308° |
| 2026-05-04 18:42 | 38.25345 | 22.34592 | 33878 ft | 395 kts | 308° |
| 2026-05-04 18:42 | 38.26881 | 22.31754 | 34268 ft | 394 kts | 308° |
| 2026-05-04 18:42 | 38.28436 | 22.28879 | 34610 ft | 394 kts | 307° |
| 2026-05-04 18:43 | 38.29992 | 22.26005 | 34938 ft | 394 kts | 307° |
| 2026-05-04 18:43 | 38.31695 | 22.23290 | 35247 ft | 392 kts | 316° |
| 2026-05-04 18:43 | 38.33730 | 22.20996 | 35544 ft | 391 kts | 323° |
| 2026-05-04 18:43 | 38.35881 | 22.18874 | 35830 ft | 391 kts | 322° |
| 2026-05-04 18:44 | 38.38027 | 22.16750 | 36081 ft | 392 kts | 322° |
| 2026-05-04 18:44 | 38.42365 | 22.12437 | 36164 ft | 399 kts | 322° |
| 2026-05-04 18:45 | 38.46749 | 22.08056 | 36161 ft | 400 kts | 322° |
| 2026-05-04 18:45 | 38.51131 | 22.03679 | 36167 ft | 400 kts | 322° |
| 2026-05-04 18:46 | 38.55490 | 21.99313 | 36167 ft | 400 kts | 322° |
| 2026-05-04 18:46 | 38.59876 | 21.94920 | 36171 ft | 401 kts | 322° |
| 2026-05-04 18:47 | 38.64262 | 21.90510 | 36176 ft | 401 kts | 322° |
| 2026-05-04 18:47 | 38.68652 | 21.86092 | 36173 ft | 401 kts | 322° |
| 2026-05-04 18:48 | 38.73049 | 21.81669 | 36178 ft | 402 kts | 322° |
| 2026-05-04 18:48 | 38.77436 | 21.77240 | 36165 ft | 402 kts | 322° |
| 2026-05-04 18:49 | 38.81827 | 21.72802 | 36171 ft | 402 kts | 322° |
| 2026-05-04 18:49 | 38.86199 | 21.68371 | 36185 ft | 403 kts | 322° |
| 2026-05-04 18:50 | 38.90622 | 21.63890 | 36180 ft | 403 kts | 322° |
| 2026-05-04 18:50 | 38.94991 | 21.59464 | 36170 ft | 403 kts | 322° |
| 2026-05-04 18:51 | 38.99392 | 21.54981 | 36176 ft | 403 kts | 322° |
| 2026-05-04 18:51 | 39.03790 | 21.50494 | 36176 ft | 403 kts | 322° |
| 2026-05-04 18:52 | 39.08190 | 21.46005 | 36169 ft | 404 kts | 322° |
| 2026-05-04 18:52 | 39.12590 | 21.41513 | 36171 ft | 404 kts | 322° |
| 2026-05-04 18:53 | 39.16997 | 21.37006 | 36175 ft | 404 kts | 322° |
| 2026-05-04 18:53 | 39.21393 | 21.32498 | 36174 ft | 404 kts | 322° |
| 2026-05-04 18:54 | 39.25797 | 21.27979 | 36181 ft | 404 kts | 322° |
| 2026-05-04 18:54 | 39.30165 | 21.23486 | 36178 ft | 404 kts | 322° |
| 2026-05-04 18:55 | 39.34559 | 21.18950 | 36178 ft | 404 kts | 322° |
| 2026-05-04 18:55 | 39.41140 | 21.12152 | 36176 ft | 404 kts | 322° |
| 2026-05-04 18:56 | 39.45536 | 21.07606 | 36172 ft | 405 kts | 322° |
| 2026-05-04 18:56 | 39.49931 | 21.03047 | 36172 ft | 405 kts | 322° |
| 2026-05-04 18:57 | 39.54324 | 20.98471 | 36169 ft | 405 kts | 322° |
| 2026-05-04 18:57 | 39.58725 | 20.93896 | 36170 ft | 406 kts | 322° |
| 2026-05-04 18:58 | 39.63126 | 20.89313 | 36169 ft | 406 kts | 322° |
| 2026-05-04 18:58 | 39.67533 | 20.84721 | 36165 ft | 406 kts | 322° |
| 2026-05-04 18:59 | 39.71956 | 20.80176 | 36166 ft | 406 kts | 323° |
| 2026-05-04 18:59 | 39.76521 | 20.75862 | 36166 ft | 406 kts | 325° |
| 2026-05-04 19:00 | 39.81092 | 20.71642 | 36161 ft | 406 kts | 325° |
| 2026-05-04 19:00 | 39.85675 | 20.67358 | 36160 ft | 406 kts | 324° |
| 2026-05-04 19:01 | 39.90229 | 20.63027 | 36155 ft | 406 kts | 324° |
| 2026-05-04 19:01 | 39.94928 | 20.58955 | 36152 ft | 406 kts | 328° |
| 2026-05-04 19:02 | 39.99771 | 20.55173 | 36149 ft | 406 kts | 329° |
| 2026-05-04 19:02 | 40.04593 | 20.51364 | 36153 ft | 405 kts | 328° |
| 2026-05-04 19:03 | 40.09383 | 20.47463 | 36151 ft | 406 kts | 328° |
| 2026-05-04 19:03 | 40.14169 | 20.43545 | 36146 ft | 406 kts | 328° |
| 2026-05-04 19:04 | 40.18954 | 20.39642 | 36140 ft | 405 kts | 328° |
| 2026-05-04 19:04 | 40.23748 | 20.35739 | 36142 ft | 405 kts | 328° |
| 2026-05-04 19:05 | 40.28545 | 20.31839 | 36139 ft | 405 kts | 328° |
| 2026-05-04 19:05 | 40.33302 | 20.27956 | 36143 ft | 406 kts | 328° |
| 2026-05-04 19:06 | 40.38090 | 20.24037 | 36142 ft | 406 kts | 328° |
| 2026-05-04 19:06 | 40.42883 | 20.20111 | 36145 ft | 406 kts | 328° |
| 2026-05-04 19:07 | 40.47676 | 20.16175 | 36141 ft | 406 kts | 328° |
| 2026-05-04 19:07 | 40.52475 | 20.12235 | 36149 ft | 407 kts | 328° |
| 2026-05-04 19:08 | 40.57281 | 20.08277 | 36149 ft | 407 kts | 328° |
| 2026-05-04 19:08 | 40.62080 | 20.04309 | 36150 ft | 407 kts | 328° |
| 2026-05-04 19:09 | 40.66882 | 20.00342 | 36150 ft | 407 kts | 328° |
| 2026-05-04 19:09 | 40.71677 | 19.96368 | 36149 ft | 407 kts | 328° |
| 2026-05-04 19:10 | 40.76434 | 19.92412 | 36154 ft | 407 kts | 328° |
| 2026-05-04 19:10 | 40.81226 | 19.88434 | 36153 ft | 407 kts | 328° |
| 2026-05-04 19:11 | 40.86019 | 19.84454 | 36155 ft | 407 kts | 328° |
| 2026-05-04 19:11 | 40.90809 | 19.80457 | 36158 ft | 407 kts | 328° |
| 2026-05-04 19:12 | 40.97995 | 19.74448 | 36153 ft | 407 kts | 328° |
| 2026-05-04 19:13 | 41.02783 | 19.70437 | 36155 ft | 407 kts | 328° |
| 2026-05-04 19:13 | 41.07586 | 19.66406 | 35880 ft | 414 kts | 328° |
| 2026-05-04 19:13 | 41.10032 | 19.64354 | 35087 ft | 418 kts | 328° |
| 2026-05-04 19:14 | 41.12497 | 19.62286 | 34357 ft | 420 kts | 328° |
| 2026-05-04 19:14 | 41.14968 | 19.60208 | 33582 ft | 421 kts | 328° |
| 2026-05-04 19:14 | 41.17447 | 19.58122 | 32755 ft | 423 kts | 328° |
| 2026-05-04 19:14 | 41.19930 | 19.56033 | 32284 ft | 422 kts | 328° |
| 2026-05-04 19:15 | 41.22382 | 19.53964 | 32039 ft | 423 kts | 328° |
| 2026-05-04 19:15 | 41.24853 | 19.51875 | 31463 ft | 419 kts | 328° |
| 2026-05-04 19:15 | 41.27304 | 19.49802 | 30868 ft | 416 kts | 328° |
| 2026-05-04 19:15 | 41.29735 | 19.47744 | 30290 ft | 413 kts | 328° |
| 2026-05-04 19:16 | 41.32147 | 19.45699 | 29629 ft | 409 kts | 328° |
| 2026-05-04 19:16 | 41.34537 | 19.43669 | 28975 ft | 406 kts | 328° |
| 2026-05-04 19:16 | 41.36908 | 19.41656 | 28348 ft | 402 kts | 328° |
| 2026-05-04 19:16 | 41.39259 | 19.39658 | 27718 ft | 399 kts | 328° |
| 2026-05-04 19:17 | 41.41590 | 19.37675 | 27099 ft | 396 kts | 328° |
| 2026-05-04 19:17 | 41.43905 | 19.35710 | 26504 ft | 393 kts | 328° |
| 2026-05-04 19:17 | 41.46201 | 19.33757 | 25924 ft | 390 kts | 328° |
| 2026-05-04 19:17 | 41.48475 | 19.31821 | 25339 ft | 387 kts | 328° |
| 2026-05-04 19:18 | 41.50744 | 19.29888 | 24771 ft | 385 kts | 328° |
| 2026-05-04 19:18 | 41.52991 | 19.27969 | 24226 ft | 382 kts | 328° |
| 2026-05-04 19:18 | 41.55223 | 19.26058 | 23691 ft | 380 kts | 329° |
| 2026-05-04 19:18 | 41.57443 | 19.24160 | 23073 ft | 378 kts | 329° |
| 2026-05-04 19:19 | 41.59649 | 19.22277 | 22489 ft | 375 kts | 329° |
| 2026-05-04 19:19 | 41.61830 | 19.20387 | 21931 ft | 373 kts | 326° |
| 2026-05-04 19:19 | 41.63748 | 19.18072 | 21399 ft | 372 kts | 318° |
| 2026-05-04 19:19 | 41.65591 | 19.15644 | 20849 ft | 370 kts | 318° |
| 2026-05-04 19:20 | 41.66805 | 19.14044 | 20491 ft | 369 kts | 318° |
| 2026-05-04 19:20 | 41.69211 | 19.10860 | 19787 ft | 366 kts | 317° |
| 2026-05-04 19:20 | 41.71015 | 19.08465 | 19261 ft | 364 kts | 317° |
| 2026-05-04 19:20 | 41.72808 | 19.06081 | 18741 ft | 362 kts | 317° |
| 2026-05-04 19:21 | 41.74592 | 19.03707 | 18185 ft | 361 kts | 317° |
| 2026-05-04 19:21 | 41.76367 | 19.01344 | 17588 ft | 359 kts | 317° |
| 2026-05-04 19:21 | 41.78130 | 18.98992 | 17013 ft | 357 kts | 317° |
| 2026-05-04 19:21 | 41.79882 | 18.96655 | 16460 ft | 354 kts | 317° |
| 2026-05-04 19:22 | 41.81620 | 18.94338 | 15893 ft | 352 kts | 317° |
| 2026-05-04 19:22 | 41.82794 | 18.92775 | 15543 ft | 351 kts | 317° |
| 2026-05-04 19:22 | 41.84519 | 18.90473 | 15019 ft | 349 kts | 317° |
| 2026-05-04 19:22 | 41.86232 | 18.88180 | 14498 ft | 347 kts | 317° |
| 2026-05-04 19:23 | 41.87935 | 18.85897 | 13979 ft | 345 kts | 317° |
| 2026-05-04 19:23 | 41.89631 | 18.83627 | 13409 ft | 343 kts | 317° |
| 2026-05-04 19:23 | 41.91315 | 18.81376 | 13144 ft | 342 kts | 317° |
| 2026-05-04 19:23 | 41.93006 | 18.79115 | 13131 ft | 344 kts | 317° |
| 2026-05-04 19:24 | 41.94683 | 18.76867 | 13139 ft | 345 kts | 317° |
| 2026-05-04 19:24 | 41.96385 | 18.74581 | 13136 ft | 345 kts | 317° |
| 2026-05-04 19:24 | 41.98083 | 18.72295 | 13138 ft | 346 kts | 317° |
| 2026-05-04 19:24 | 41.99778 | 18.70015 | 13134 ft | 345 kts | 317° |
| 2026-05-04 19:25 | 42.01466 | 18.67747 | 12698 ft | 342 kts | 317° |
| 2026-05-04 19:25 | 42.03143 | 18.65496 | 12157 ft | 340 kts | 317° |
| 2026-05-04 19:25 | 42.04810 | 18.63257 | 11634 ft | 338 kts | 316° |
| 2026-05-04 19:25 | 42.06464 | 18.61027 | 11132 ft | 336 kts | 316° |
| 2026-05-04 19:26 | 42.08106 | 18.58807 | 10644 ft | 334 kts | 316° |
| 2026-05-04 19:26 | 42.09739 | 18.56598 | 10170 ft | 332 kts | 316° |
| 2026-05-04 19:26 | 42.11354 | 18.54409 | 9862 ft | 324 kts | 316° |
| 2026-05-04 19:26 | 42.12914 | 18.52293 | 9728 ft | 312 kts | 316° |
| 2026-05-04 19:27 | 42.14415 | 18.50257 | 9589 ft | 298 kts | 316° |
| 2026-05-04 19:27 | 42.15839 | 18.48328 | 9230 ft | 285 kts | 316° |
| 2026-05-04 19:27 | 42.17225 | 18.46451 | 8682 ft | 281 kts | 316° |
| 2026-05-04 19:27 | 42.18580 | 18.44612 | 8099 ft | 279 kts | 315° |
| 2026-05-04 19:28 | 42.19942 | 18.42764 | 7521 ft | 277 kts | 315° |
| 2026-05-04 19:28 | 42.21294 | 18.40930 | 6951 ft | 275 kts | 315° |
| 2026-05-04 19:28 | 42.22637 | 18.39104 | 6379 ft | 273 kts | 315° |
| 2026-05-04 19:28 | 42.23974 | 18.37286 | 5786 ft | 272 kts | 314° |
| 2026-05-04 19:29 | 42.25306 | 18.35473 | 5218 ft | 271 kts | 314° |
| 2026-05-04 19:29 | 42.26633 | 18.33666 | 5025 ft | 271 kts | 314° |
| 2026-05-04 19:29 | 42.27966 | 18.31850 | 5003 ft | 272 kts | 314° |
| 2026-05-04 19:29 | 42.29290 | 18.30043 | 5006 ft | 273 kts | 314° |
| 2026-05-04 19:30 | 42.30607 | 18.28241 | 5009 ft | 273 kts | 314° |
| 2026-05-04 19:30 | 42.31945 | 18.26409 | 5008 ft | 272 kts | 314° |
| 2026-05-04 19:30 | 42.33267 | 18.24599 | 5010 ft | 273 kts | 314° |
| 2026-05-04 19:30 | 42.34600 | 18.22778 | 5011 ft | 272 kts | 314° |
| 2026-05-04 19:31 | 42.35938 | 18.20951 | 5010 ft | 272 kts | 314° |
| 2026-05-04 19:31 | 42.37254 | 18.19147 | 5010 ft | 272 kts | 314° |
| 2026-05-04 19:31 | 42.38586 | 18.17322 | 5010 ft | 272 kts | 314° |
| 2026-05-04 19:31 | 42.39916 | 18.15498 | 5009 ft | 272 kts | 314° |
| 2026-05-04 19:32 | 42.41247 | 18.13674 | 5009 ft | 272 kts | 314° |
| 2026-05-04 19:32 | 42.42566 | 18.11867 | 5011 ft | 271 kts | 314° |
| 2026-05-04 19:32 | 42.43892 | 18.10048 | 5011 ft | 271 kts | 314° |
| 2026-05-04 19:32 | 42.45223 | 18.08219 | 5009 ft | 272 kts | 314° |
| 2026-05-04 19:33 | 42.46551 | 18.06393 | 5014 ft | 271 kts | 313° |
| 2026-05-04 19:33 | 42.47859 | 18.04591 | 5011 ft | 271 kts | 313° |
| 2026-05-04 19:33 | 42.49189 | 18.02760 | 5012 ft | 271 kts | 314° |
| 2026-05-04 19:33 | 42.50518 | 18.00927 | 5010 ft | 271 kts | 313° |
| 2026-05-04 19:34 | 42.51826 | 17.99117 | 5012 ft | 271 kts | 313° |
| 2026-05-04 19:34 | 42.53147 | 17.97288 | 5012 ft | 271 kts | 313° |
| 2026-05-04 19:34 | 42.54469 | 17.95457 | 5015 ft | 271 kts | 314° |
| 2026-05-04 19:34 | 42.55739 | 17.93610 | 5010 ft | 270 kts | 308° |
| 2026-05-04 19:35 | 42.56820 | 17.91520 | 5014 ft | 270 kts | 300° |
| 2026-05-04 19:35 | 42.57843 | 17.89433 | 5007 ft | 259 kts | 314° |
| 2026-05-04 19:35 | 42.59284 | 17.88135 | 5011 ft | 246 kts | 338° |
| 2026-05-04 19:35 | 42.60912 | 17.87702 | 5008 ft | 232 kts | 360° |
| 2026-05-04 19:36 | 42.62473 | 17.88062 | 5009 ft | 226 kts | 20° |
| 2026-05-04 19:36 | 42.63816 | 17.89113 | 5009 ft | 226 kts | 41° |
| 2026-05-04 19:36 | 42.64814 | 17.90753 | 5010 ft | 226 kts | 62° |
| 2026-05-04 19:36 | 42.65332 | 17.92762 | 5009 ft | 226 kts | 79° |
| 2026-05-04 19:37 | 42.65663 | 17.94856 | 5011 ft | 226 kts | 78° |
| 2026-05-04 19:37 | 42.65998 | 17.96917 | 5011 ft | 226 kts | 78° |
| 2026-05-04 19:37 | 42.66322 | 17.99033 | 4710 ft | 234 kts | 85° |
| 2026-05-04 19:37 | 42.66170 | 18.01200 | 4354 ft | 227 kts | 109° |
| 2026-05-04 19:38 | 42.65500 | 18.03097 | 4062 ft | 218 kts | 119° |
| 2026-05-04 19:38 | 42.64792 | 18.04895 | 3789 ft | 211 kts | 119° |
| 2026-05-04 19:38 | 42.64117 | 18.06613 | 3527 ft | 204 kts | 118° |
| 2026-05-04 19:38 | 42.63467 | 18.08263 | 3234 ft | 191 kts | 118° |
| 2026-05-04 19:39 | 42.62860 | 18.09804 | 2993 ft | 178 kts | 118° |
| 2026-05-04 19:39 | 42.62297 | 18.11232 | 2764 ft | 168 kts | 118° |
| 2026-05-04 19:39 | 42.61760 | 18.12596 | 2548 ft | 157 kts | 118° |
| 2026-05-04 19:39 | 42.61260 | 18.13861 | 2357 ft | 148 kts | 118° |
| 2026-05-04 19:40 | 42.60781 | 18.15076 | 2156 ft | 144 kts | 118° |
| 2026-05-04 19:40 | 42.60316 | 18.16254 | 1969 ft | 142 kts | 118° |
| 2026-05-04 19:40 | 42.59847 | 18.17441 | 1780 ft | 142 kts | 118° |
| 2026-05-04 19:40 | 42.59380 | 18.18623 | 1574 ft | 141 kts | 118° |
| 2026-05-04 19:41 | 42.58917 | 18.19789 | 1374 ft | 141 kts | 118° |
| 2026-05-04 19:41 | 42.58448 | 18.20966 | 1191 ft | 141 kts | 118° |
| 2026-05-04 19:41 | 42.57994 | 18.22125 | 1001 ft | 141 kts | 117° |
| 2026-05-04 19:41 | 42.57533 | 18.23295 | 816 ft | 141 kts | 118° |
| 2026-05-04 19:42 | 42.57077 | 18.24457 | 660 ft | 139 kts | 118° |
| 2026-05-04 19:42 | 42.56619 | 18.25606 | 539 ft | 132 kts | 117° |
| 2026-05-04 19:42 | 42.56290 | 18.26436 | 533 ft | 66 kts | 118° |
| 2026-05-04 19:42 | 42.56162 | 18.26625 | 534 ft | 11 kts | 198° |
| 2026-05-04 19:43 | 42.56136 | 18.26569 | 534 ft | 8 kts | 242° |
| 2026-05-04 19:43 | 42.56105 | 18.26481 | 534 ft | 12 kts | 253° |
| 2026-05-04 19:43 | 42.56130 | 18.26369 | 534 ft | 14 kts | 297° |
| 2026-05-04 19:43 | 42.56171 | 18.26240 | 534 ft | 12 kts | 258° |
| 2026-05-04 19:44 | 42.56129 | 18.26202 | 534 ft | 3 kts | 210° |